sensor_id;sensor_type;location;lat;lon;timestamp;P1;durP1;ratioP1;P2;durP2;ratioP2
16804;SDS011;8520;50.102;20.010;2024-02-15T00:02:15;26.13;;;23.27;;
16804;SDS011;8520;50.102;20.010;2024-02-15T00:04:44;25.83;;;22.57;;
16804;SDS011;8520;50.102;20.010;2024-02-15T00:07:12;27.73;;;24.80;;
16804;SDS011;8520;50.102;20.010;2024-02-15T00:09:41;28.37;;;25.13;;
16804;SDS011;8520;50.102;20.010;2024-02-15T00:12:09;27.30;;;24.40;;
16804;SDS011;8520;50.102;20.010;2024-02-15T00:14:37;25.60;;;22.63;;
16804;SDS011;8520;50.102;20.010;2024-02-15T00:17:05;27.57;;;24.27;;
16804;SDS011;8520;50.102;20.010;2024-02-15T00:19:33;25.83;;;23.13;;
16804;SDS011;8520;50.102;20.010;2024-02-15T00:22:02;25.87;;;23.17;;
16804;SDS011;8520;50.102;20.010;2024-02-15T00:24:31;27.63;;;24.73;;
16804;SDS011;8520;50.102;20.010;2024-02-15T00:26:59;33.83;;;28.37;;
16804;SDS011;8520;50.102;20.010;2024-02-15T00:29:27;31.03;;;27.43;;
16804;SDS011;8520;50.102;20.010;2024-02-15T00:31:55;32.53;;;27.77;;
16804;SDS011;8520;50.102;20.010;2024-02-15T00:34:24;32.43;;;27.67;;
16804;SDS011;8520;50.102;20.010;2024-02-15T00:36:53;34.33;;;29.10;;
16804;SDS011;8520;50.102;20.010;2024-02-15T00:39:23;32.00;;;28.43;;
16804;SDS011;8520;50.102;20.010;2024-02-15T00:41:51;32.93;;;27.17;;
16804;SDS011;8520;50.102;20.010;2024-02-15T00:44:19;29.30;;;25.60;;
16804;SDS011;8520;50.102;20.010;2024-02-15T00:46:47;35.87;;;29.37;;
16804;SDS011;8520;50.102;20.010;2024-02-15T00:49:15;32.83;;;26.27;;
16804;SDS011;8520;50.102;20.010;2024-02-15T00:51:46;28.87;;;25.73;;
16804;SDS011;8520;50.102;20.010;2024-02-15T00:54:15;33.77;;;28.60;;
16804;SDS011;8520;50.102;20.010;2024-02-15T00:56:45;33.37;;;26.60;;
16804;SDS011;8520;50.102;20.010;2024-02-15T00:59:13;30.73;;;27.13;;
16804;SDS011;8520;50.102;20.010;2024-02-15T01:01:41;27.83;;;24.80;;
16804;SDS011;8520;50.102;20.010;2024-02-15T01:04:09;29.47;;;26.30;;
16804;SDS011;8520;50.102;20.010;2024-02-15T01:06:37;30.43;;;26.13;;
16804;SDS011;8520;50.102;20.010;2024-02-15T01:09:05;27.13;;;24.40;;
16804;SDS011;8520;50.102;20.010;2024-02-15T01:11:35;28.57;;;25.53;;
16804;SDS011;8520;50.102;20.010;2024-02-15T01:14:05;30.70;;;25.60;;
16804;SDS011;8520;50.102;20.010;2024-02-15T01:16:36;29.70;;;25.07;;
16804;SDS011;8520;50.102;20.010;2024-02-15T01:19:04;31.03;;;26.13;;
16804;SDS011;8520;50.102;20.010;2024-02-15T01:21:32;33.00;;;26.17;;
16804;SDS011;8520;50.102;20.010;2024-02-15T01:24:01;28.83;;;25.23;;
16804;SDS011;8520;50.102;20.010;2024-02-15T01:26:30;28.00;;;24.40;;
16804;SDS011;8520;50.102;20.010;2024-02-15T01:28:58;29.93;;;25.77;;
16804;SDS011;8520;50.102;20.010;2024-02-15T01:31:27;27.13;;;24.30;;
16804;SDS011;8520;50.102;20.010;2024-02-15T01:33:55;26.27;;;23.50;;
16804;SDS011;8520;50.102;20.010;2024-02-15T01:36:24;24.43;;;21.93;;
16804;SDS011;8520;50.102;20.010;2024-02-15T01:38:53;27.37;;;23.37;;
16804;SDS011;8520;50.102;20.010;2024-02-15T01:41:20;24.67;;;22.07;;
16804;SDS011;8520;50.102;20.010;2024-02-15T01:43:48;26.13;;;22.00;;
16804;SDS011;8520;50.102;20.010;2024-02-15T01:46:16;21.47;;;19.37;;
16804;SDS011;8520;50.102;20.010;2024-02-15T01:48:46;25.73;;;22.70;;
16804;SDS011;8520;50.102;20.010;2024-02-15T01:51:14;25.37;;;22.13;;
16804;SDS011;8520;50.102;20.010;2024-02-15T01:53:43;26.37;;;23.57;;
16804;SDS011;8520;50.102;20.010;2024-02-15T01:56:12;26.70;;;23.80;;
16804;SDS011;8520;50.102;20.010;2024-02-15T01:58:41;26.67;;;23.37;;
16804;SDS011;8520;50.102;20.010;2024-02-15T02:01:10;26.93;;;23.27;;
16804;SDS011;8520;50.102;20.010;2024-02-15T02:03:38;26.33;;;23.60;;
16804;SDS011;8520;50.102;20.010;2024-02-15T02:06:08;26.33;;;22.53;;
16804;SDS011;8520;50.102;20.010;2024-02-15T02:08:36;26.37;;;23.57;;
16804;SDS011;8520;50.102;20.010;2024-02-15T02:11:04;26.07;;;23.33;;
16804;SDS011;8520;50.102;20.010;2024-02-15T02:13:32;25.63;;;22.97;;
16804;SDS011;8520;50.102;20.010;2024-02-15T02:16:00;27.63;;;22.33;;
16804;SDS011;8520;50.102;20.010;2024-02-15T02:18:28;26.47;;;23.60;;
16804;SDS011;8520;50.102;20.010;2024-02-15T02:20:57;25.97;;;23.17;;
16804;SDS011;8520;50.102;20.010;2024-02-15T02:23:26;26.30;;;23.03;;
16804;SDS011;8520;50.102;20.010;2024-02-15T02:25:59;26.10;;;23.30;;
16804;SDS011;8520;50.102;20.010;2024-02-15T02:28:28;27.33;;;24.43;;
16804;SDS011;8520;50.102;20.010;2024-02-15T02:30:56;27.97;;;25.00;;
16804;SDS011;8520;50.102;20.010;2024-02-15T02:33:24;28.07;;;24.67;;
16804;SDS011;8520;50.102;20.010;2024-02-15T02:35:55;28.47;;;24.00;;
16804;SDS011;8520;50.102;20.010;2024-02-15T02:38:24;29.53;;;24.40;;
16804;SDS011;8520;50.102;20.010;2024-02-15T02:40:53;27.97;;;24.67;;
16804;SDS011;8520;50.102;20.010;2024-02-15T02:43:22;29.40;;;26.13;;
16804;SDS011;8520;50.102;20.010;2024-02-15T02:45:50;28.67;;;25.67;;
16804;SDS011;8520;50.102;20.010;2024-02-15T02:48:18;27.87;;;24.87;;
16804;SDS011;8520;50.102;20.010;2024-02-15T02:50:46;29.20;;;26.07;;
16804;SDS011;8520;50.102;20.010;2024-02-15T02:53:14;29.23;;;26.23;;
16804;SDS011;8520;50.102;20.010;2024-02-15T02:55:43;29.00;;;25.90;;
16804;SDS011;8520;50.102;20.010;2024-02-15T02:58:11;29.17;;;25.40;;
16804;SDS011;8520;50.102;20.010;2024-02-15T03:00:40;29.97;;;26.70;;
16804;SDS011;8520;50.102;20.010;2024-02-15T03:03:09;30.83;;;27.17;;
16804;SDS011;8520;50.102;20.010;2024-02-15T03:05:37;31.60;;;27.47;;
16804;SDS011;8520;50.102;20.010;2024-02-15T03:08:08;31.80;;;27.97;;
16804;SDS011;8520;50.102;20.010;2024-02-15T03:10:36;32.20;;;28.00;;
16804;SDS011;8520;50.102;20.010;2024-02-15T03:13:05;34.93;;;29.47;;
16804;SDS011;8520;50.102;20.010;2024-02-15T03:15:35;32.27;;;27.43;;
16804;SDS011;8520;50.102;20.010;2024-02-15T03:18:05;28.90;;;25.70;;
16804;SDS011;8520;50.102;20.010;2024-02-15T03:20:34;32.20;;;27.07;;
16804;SDS011;8520;50.102;20.010;2024-02-15T03:23:04;28.77;;;25.10;;
16804;SDS011;8520;50.102;20.010;2024-02-15T03:25:32;30.73;;;27.03;;
16804;SDS011;8520;50.102;20.010;2024-02-15T03:28:01;31.57;;;26.87;;
16804;SDS011;8520;50.102;20.010;2024-02-15T03:30:30;28.60;;;25.60;;
16804;SDS011;8520;50.102;20.010;2024-02-15T03:33:00;28.03;;;25.20;;
16804;SDS011;8520;50.102;20.010;2024-02-15T03:35:34;27.97;;;24.93;;
16804;SDS011;8520;50.102;20.010;2024-02-15T03:38:02;30.60;;;24.83;;
16804;SDS011;8520;50.102;20.010;2024-02-15T03:40:30;26.97;;;24.07;;
16804;SDS011;8520;50.102;20.010;2024-02-15T03:42:59;36.83;;;31.83;;
16804;SDS011;8520;50.102;20.010;2024-02-15T03:45:27;33.67;;;29.17;;
16804;SDS011;8520;50.102;20.010;2024-02-15T03:47:55;30.90;;;27.43;;
16804;SDS011;8520;50.102;20.010;2024-02-15T03:50:23;27.03;;;24.17;;
16804;SDS011;8520;50.102;20.010;2024-02-15T03:52:53;31.33;;;25.67;;
16804;SDS011;8520;50.102;20.010;2024-02-15T03:55:21;29.10;;;25.87;;
16804;SDS011;8520;50.102;20.010;2024-02-15T03:57:52;32.47;;;28.13;;
16804;SDS011;8520;50.102;20.010;2024-02-15T04:00:22;34.27;;;28.57;;
16804;SDS011;8520;50.102;20.010;2024-02-15T04:02:52;29.53;;;26.37;;
16804;SDS011;8520;50.102;20.010;2024-02-15T04:05:20;28.93;;;25.37;;
16804;SDS011;8520;50.102;20.010;2024-02-15T04:07:50;31.30;;;28.20;;
16804;SDS011;8520;50.102;20.010;2024-02-15T04:10:20;31.10;;;27.43;;
16804;SDS011;8520;50.102;20.010;2024-02-15T04:12:48;35.03;;;29.77;;
16804;SDS011;8520;50.102;20.010;2024-02-15T04:15:16;32.97;;;29.37;;
16804;SDS011;8520;50.102;20.010;2024-02-15T04:17:45;34.90;;;28.83;;
16804;SDS011;8520;50.102;20.010;2024-02-15T04:20:13;30.17;;;26.80;;
16804;SDS011;8520;50.102;20.010;2024-02-15T04:22:43;30.40;;;27.37;;
16804;SDS011;8520;50.102;20.010;2024-02-15T04:25:11;36.90;;;28.63;;
16804;SDS011;8520;50.102;20.010;2024-02-15T04:27:45;29.73;;;26.53;;
16804;SDS011;8520;50.102;20.010;2024-02-15T04:30:14;30.60;;;27.30;;
16804;SDS011;8520;50.102;20.010;2024-02-15T04:32:44;29.97;;;25.53;;
16804;SDS011;8520;50.102;20.010;2024-02-15T04:35:12;29.17;;;26.07;;
16804;SDS011;8520;50.102;20.010;2024-02-15T04:37:41;27.20;;;24.40;;
16804;SDS011;8520;50.102;20.010;2024-02-15T04:40:09;25.43;;;22.83;;
16804;SDS011;8520;50.102;20.010;2024-02-15T04:42:40;26.43;;;23.70;;
16804;SDS011;8520;50.102;20.010;2024-02-15T04:45:13;29.13;;;26.00;;
16804;SDS011;8520;50.102;20.010;2024-02-15T04:47:42;29.13;;;26.03;;
16804;SDS011;8520;50.102;20.010;2024-02-15T04:50:13;34.77;;;31.03;;
16804;SDS011;8520;50.102;20.010;2024-02-15T04:52:41;31.17;;;27.13;;
16804;SDS011;8520;50.102;20.010;2024-02-15T04:55:12;30.57;;;25.57;;
16804;SDS011;8520;50.102;20.010;2024-02-15T04:57:42;44.73;;;35.60;;
16804;SDS011;8520;50.102;20.010;2024-02-15T05:00:10;34.77;;;30.57;;
16804;SDS011;8520;50.102;20.010;2024-02-15T05:02:41;29.70;;;26.70;;
16804;SDS011;8520;50.102;20.010;2024-02-15T05:05:11;42.57;;;34.60;;
16804;SDS011;8520;50.102;20.010;2024-02-15T05:07:40;31.57;;;28.20;;
16804;SDS011;8520;50.102;20.010;2024-02-15T05:10:10;47.13;;;36.43;;
16804;SDS011;8520;50.102;20.010;2024-02-15T05:12:39;43.90;;;36.23;;
16804;SDS011;8520;50.102;20.010;2024-02-15T05:15:08;41.57;;;35.20;;
16804;SDS011;8520;50.102;20.010;2024-02-15T05:17:39;41.90;;;34.13;;
16804;SDS011;8520;50.102;20.010;2024-02-15T05:20:10;38.90;;;32.13;;
16804;SDS011;8520;50.102;20.010;2024-02-15T05:22:41;41.60;;;34.37;;
16804;SDS011;8520;50.102;20.010;2024-02-15T05:25:16;42.23;;;35.93;;
16804;SDS011;8520;50.102;20.010;2024-02-15T05:27:51;38.90;;;34.23;;
16804;SDS011;8520;50.102;20.010;2024-02-15T05:30:21;37.77;;;32.73;;
16804;SDS011;8520;50.102;20.010;2024-02-15T05:32:50;35.80;;;32.10;;
16804;SDS011;8520;50.102;20.010;2024-02-15T05:35:22;39.23;;;32.63;;
16804;SDS011;8520;50.102;20.010;2024-02-15T05:37:51;37.27;;;32.47;;
16804;SDS011;8520;50.102;20.010;2024-02-15T05:40:20;36.93;;;31.80;;
16804;SDS011;8520;50.102;20.010;2024-02-15T05:42:48;35.43;;;30.97;;
16804;SDS011;8520;50.102;20.010;2024-02-15T05:45:29;34.07;;;30.37;;
16804;SDS011;8520;50.102;20.010;2024-02-15T05:48:00;33.43;;;29.70;;
16804;SDS011;8520;50.102;20.010;2024-02-15T05:50:30;31.23;;;28.03;;
16804;SDS011;8520;50.102;20.010;2024-02-15T05:52:58;33.53;;;28.17;;
16804;SDS011;8520;50.102;20.010;2024-02-15T05:55:28;29.73;;;26.53;;
16804;SDS011;8520;50.102;20.010;2024-02-15T05:57:58;30.20;;;27.13;;
16804;SDS011;8520;50.102;20.010;2024-02-15T06:00:26;34.13;;;30.43;;
16804;SDS011;8520;50.102;20.010;2024-02-15T06:02:56;38.53;;;31.27;;
16804;SDS011;8520;50.102;20.010;2024-02-15T06:05:25;30.83;;;27.50;;
16804;SDS011;8520;50.102;20.010;2024-02-15T06:07:54;37.73;;;30.53;;
16804;SDS011;8520;50.102;20.010;2024-02-15T06:10:24;44.53;;;31.37;;
16804;SDS011;8520;50.102;20.010;2024-02-15T06:12:52;38.03;;;31.70;;
16804;SDS011;8520;50.102;20.010;2024-02-15T06:15:21;43.07;;;32.90;;
16804;SDS011;8520;50.102;20.010;2024-02-15T06:17:50;37.30;;;31.10;;
16804;SDS011;8520;50.102;20.010;2024-02-15T06:20:18;35.13;;;30.23;;
16804;SDS011;8520;50.102;20.010;2024-02-15T06:22:47;35.60;;;30.37;;
16804;SDS011;8520;50.102;20.010;2024-02-15T06:25:17;43.50;;;34.03;;
16804;SDS011;8520;50.102;20.010;2024-02-15T06:27:48;43.87;;;37.47;;
16804;SDS011;8520;50.102;20.010;2024-02-15T06:30:25;40.13;;;34.17;;
16804;SDS011;8520;50.102;20.010;2024-02-15T06:33:11;38.77;;;32.67;;
16804;SDS011;8520;50.102;20.010;2024-02-15T06:35:57;37.43;;;31.77;;
16804;SDS011;8520;50.102;20.010;2024-02-15T06:38:42;38.67;;;31.97;;
16804;SDS011;8520;50.102;20.010;2024-02-15T06:41:28;38.27;;;29.43;;
16804;SDS011;8520;50.102;20.010;2024-02-15T06:43:56;39.47;;;31.30;;
16804;SDS011;8520;50.102;20.010;2024-02-15T06:46:24;39.60;;;32.13;;
16804;SDS011;8520;50.102;20.010;2024-02-15T06:48:52;40.07;;;31.37;;
16804;SDS011;8520;50.102;20.010;2024-02-15T06:51:21;35.50;;;30.37;;
16804;SDS011;8520;50.102;20.010;2024-02-15T06:53:51;35.83;;;30.03;;
16804;SDS011;8520;50.102;20.010;2024-02-15T06:56:23;38.80;;;30.30;;
16804;SDS011;8520;50.102;20.010;2024-02-15T06:58:52;41.90;;;29.97;;
16804;SDS011;8520;50.102;20.010;2024-02-15T07:01:23;36.83;;;30.70;;
16804;SDS011;8520;50.102;20.010;2024-02-15T07:03:52;38.73;;;30.00;;
16804;SDS011;8520;50.102;20.010;2024-02-15T07:06:24;40.03;;;31.27;;
16804;SDS011;8520;50.102;20.010;2024-02-15T07:08:54;34.40;;;30.80;;
16804;SDS011;8520;50.102;20.010;2024-02-15T07:11:24;38.17;;;31.30;;
16804;SDS011;8520;50.102;20.010;2024-02-15T07:13:53;37.93;;;31.23;;
16804;SDS011;8520;50.102;20.010;2024-02-15T07:16:21;42.30;;;30.43;;
16804;SDS011;8520;50.102;20.010;2024-02-15T07:18:50;45.43;;;35.17;;
16804;SDS011;8520;50.102;20.010;2024-02-15T07:21:19;42.90;;;34.17;;
16804;SDS011;8520;50.102;20.010;2024-02-15T07:23:53;42.27;;;32.63;;
16804;SDS011;8520;50.102;20.010;2024-02-15T07:26:23;44.20;;;35.27;;
16804;SDS011;8520;50.102;20.010;2024-02-15T07:28:54;39.97;;;34.03;;
16804;SDS011;8520;50.102;20.010;2024-02-15T07:31:22;44.40;;;35.97;;
16804;SDS011;8520;50.102;20.010;2024-02-15T07:33:50;44.37;;;33.10;;
16804;SDS011;8520;50.102;20.010;2024-02-15T07:36:20;40.77;;;33.03;;
16804;SDS011;8520;50.102;20.010;2024-02-15T07:38:49;37.53;;;32.23;;
16804;SDS011;8520;50.102;20.010;2024-02-15T07:41:18;34.97;;;30.77;;
16804;SDS011;8520;50.102;20.010;2024-02-15T07:43:46;34.27;;;30.40;;
16804;SDS011;8520;50.102;20.010;2024-02-15T07:46:16;40.20;;;31.67;;
16804;SDS011;8520;50.102;20.010;2024-02-15T07:48:44;35.80;;;30.47;;
16804;SDS011;8520;50.102;20.010;2024-02-15T07:51:14;44.83;;;30.50;;
16804;SDS011;8520;50.102;20.010;2024-02-15T07:53:42;39.80;;;30.97;;
16804;SDS011;8520;50.102;20.010;2024-02-15T07:56:10;39.80;;;30.93;;
16804;SDS011;8520;50.102;20.010;2024-02-15T07:58:39;33.73;;;28.67;;
16804;SDS011;8520;50.102;20.010;2024-02-15T08:01:19;36.47;;;30.50;;
16804;SDS011;8520;50.102;20.010;2024-02-15T08:03:50;36.00;;;31.00;;
16804;SDS011;8520;50.102;20.010;2024-02-15T08:06:21;42.73;;;31.63;;
16804;SDS011;8520;50.102;20.010;2024-02-15T08:08:52;49.20;;;32.70;;
16804;SDS011;8520;50.102;20.010;2024-02-15T08:11:20;53.67;;;35.97;;
16804;SDS011;8520;50.102;20.010;2024-02-15T08:13:50;48.20;;;32.63;;
16804;SDS011;8520;50.102;20.010;2024-02-15T08:16:22;56.03;;;35.40;;
16804;SDS011;8520;50.102;20.010;2024-02-15T08:18:51;58.17;;;34.03;;
16804;SDS011;8520;50.102;20.010;2024-02-15T08:21:25;50.83;;;35.00;;
16804;SDS011;8520;50.102;20.010;2024-02-15T08:23:53;44.37;;;34.13;;
16804;SDS011;8520;50.102;20.010;2024-02-15T08:26:22;49.70;;;35.47;;
16804;SDS011;8520;50.102;20.010;2024-02-15T08:28:50;56.47;;;35.40;;
16804;SDS011;8520;50.102;20.010;2024-02-15T08:31:20;46.10;;;34.33;;
16804;SDS011;8520;50.102;20.010;2024-02-15T08:33:50;52.13;;;34.73;;
16804;SDS011;8520;50.102;20.010;2024-02-15T08:36:18;48.67;;;35.00;;
16804;SDS011;8520;50.102;20.010;2024-02-15T08:38:48;41.80;;;34.17;;
16804;SDS011;8520;50.102;20.010;2024-02-15T08:41:16;52.00;;;37.30;;
16804;SDS011;8520;50.102;20.010;2024-02-15T08:43:49;48.67;;;37.07;;
16804;SDS011;8520;50.102;20.010;2024-02-15T08:46:17;46.00;;;36.00;;
16804;SDS011;8520;50.102;20.010;2024-02-15T08:48:45;44.40;;;37.37;;
16804;SDS011;8520;50.102;20.010;2024-02-15T08:51:15;55.90;;;40.40;;
16804;SDS011;8520;50.102;20.010;2024-02-15T08:53:48;51.17;;;37.13;;
16804;SDS011;8520;50.102;20.010;2024-02-15T08:56:16;54.63;;;39.53;;
16804;SDS011;8520;50.102;20.010;2024-02-15T08:58:44;59.63;;;40.27;;
16804;SDS011;8520;50.102;20.010;2024-02-15T09:01:12;60.53;;;39.70;;
16804;SDS011;8520;50.102;20.010;2024-02-15T09:03:41;68.27;;;38.30;;
16804;SDS011;8520;50.102;20.010;2024-02-15T09:06:12;61.97;;;37.80;;
16804;SDS011;8520;50.102;20.010;2024-02-15T09:08:41;65.03;;;38.50;;
16804;SDS011;8520;50.102;20.010;2024-02-15T09:11:10;57.20;;;35.80;;
16804;SDS011;8520;50.102;20.010;2024-02-15T09:13:39;49.57;;;36.13;;
16804;SDS011;8520;50.102;20.010;2024-02-15T09:16:07;59.20;;;38.40;;
16804;SDS011;8520;50.102;20.010;2024-02-15T09:18:35;61.47;;;37.43;;
16804;SDS011;8520;50.102;20.010;2024-02-15T09:21:04;61.40;;;37.03;;
16804;SDS011;8520;50.102;20.010;2024-02-15T09:23:32;54.47;;;37.47;;
16804;SDS011;8520;50.102;20.010;2024-02-15T09:26:02;53.33;;;36.63;;
16804;SDS011;8520;50.102;20.010;2024-02-15T09:28:30;54.07;;;36.27;;
16804;SDS011;8520;50.102;20.010;2024-02-15T09:30:59;104.07;;;73.47;;
16804;SDS011;8520;50.102;20.010;2024-02-15T09:33:28;52.13;;;38.40;;
16804;SDS011;8520;50.102;20.010;2024-02-15T09:35:56;51.60;;;37.53;;
16804;SDS011;8520;50.102;20.010;2024-02-15T09:38:24;52.33;;;37.10;;
16804;SDS011;8520;50.102;20.010;2024-02-15T09:40:52;50.37;;;36.93;;
16804;SDS011;8520;50.102;20.010;2024-02-15T09:43:23;48.77;;;36.87;;
16804;SDS011;8520;50.102;20.010;2024-02-15T09:45:52;54.37;;;37.30;;
16804;SDS011;8520;50.102;20.010;2024-02-15T09:48:22;58.73;;;36.13;;
16804;SDS011;8520;50.102;20.010;2024-02-15T09:50:52;55.67;;;36.10;;
16804;SDS011;8520;50.102;20.010;2024-02-15T09:53:22;62.63;;;37.97;;
16804;SDS011;8520;50.102;20.010;2024-02-15T09:55:53;59.33;;;36.50;;
16804;SDS011;8520;50.102;20.010;2024-02-15T09:58:22;61.03;;;35.30;;
16804;SDS011;8520;50.102;20.010;2024-02-15T10:00:51;63.80;;;35.33;;
16804;SDS011;8520;50.102;20.010;2024-02-15T10:03:19;55.20;;;35.17;;
16804;SDS011;8520;50.102;20.010;2024-02-15T10:05:48;64.33;;;45.23;;
16804;SDS011;8520;50.102;20.010;2024-02-15T10:08:17;55.63;;;35.30;;
16804;SDS011;8520;50.102;20.010;2024-02-15T10:10:48;52.63;;;32.73;;
16804;SDS011;8520;50.102;20.010;2024-02-15T10:13:34;55.73;;;33.17;;
16804;SDS011;8520;50.102;20.010;2024-02-15T10:16:13;46.83;;;32.97;;
16804;SDS011;8520;50.102;20.010;2024-02-15T10:18:41;46.30;;;30.50;;
16804;SDS011;8520;50.102;20.010;2024-02-15T10:21:10;47.40;;;31.63;;
16804;SDS011;8520;50.102;20.010;2024-02-15T10:23:38;48.67;;;30.87;;
16804;SDS011;8520;50.102;20.010;2024-02-15T10:26:21;48.40;;;28.53;;
16804;SDS011;8520;50.102;20.010;2024-02-15T10:31:38;33.97;;;25.13;;
16804;SDS011;8520;50.102;20.010;2024-02-15T10:34:07;36.95;;;24.63;;
16804;SDS011;8520;50.102;20.010;2024-02-15T10:36:36;30.75;;;23.15;;
16804;SDS011;8520;50.102;20.010;2024-02-15T10:39:10;25.60;;;20.60;;
16804;SDS011;8520;50.102;20.010;2024-02-15T10:41:44;29.33;;;20.85;;
16804;SDS011;8520;50.102;20.010;2024-02-15T10:44:16;27.10;;;21.27;;
16804;SDS011;8520;50.102;20.010;2024-02-15T10:46:46;29.60;;;21.45;;
16804;SDS011;8520;50.102;20.010;2024-02-15T10:49:18;26.10;;;20.33;;
16804;SDS011;8520;50.102;20.010;2024-02-15T10:51:50;23.08;;;19.15;;
16804;SDS011;8520;50.102;20.010;2024-02-15T10:54:21;19.52;;;15.30;;
16804;SDS011;8520;50.102;20.010;2024-02-15T10:56:52;17.98;;;15.55;;
16804;SDS011;8520;50.102;20.010;2024-02-15T10:59:23;15.32;;;13.73;;
16804;SDS011;8520;50.102;20.010;2024-02-15T11:01:59;14.52;;;13.10;;
16804;SDS011;8520;50.102;20.010;2024-02-15T11:04:28;15.23;;;13.68;;
16804;SDS011;8520;50.102;20.010;2024-02-15T11:06:59;14.57;;;13.13;;
16804;SDS011;8520;50.102;20.010;2024-02-15T11:09:28;14.70;;;13.20;;
16804;SDS011;8520;50.102;20.010;2024-02-15T11:11:57;12.23;;;11.13;;
16804;SDS011;8520;50.102;20.010;2024-02-15T11:14:26;13.38;;;12.18;;
16804;SDS011;8520;50.102;20.010;2024-02-15T11:16:57;12.43;;;11.40;;
16804;SDS011;8520;50.102;20.010;2024-02-15T11:19:41;11.70;;;10.80;;
16804;SDS011;8520;50.102;20.010;2024-02-15T11:22:13;11.13;;;10.15;;
16804;SDS011;8520;50.102;20.010;2024-02-15T11:24:45;11.68;;;10.57;;
16804;SDS011;8520;50.102;20.010;2024-02-15T11:27:23;11.88;;;10.57;;
16804;SDS011;8520;50.102;20.010;2024-02-15T11:29:52;13.38;;;12.15;;
16804;SDS011;8520;50.102;20.010;2024-02-15T11:32:40;12.88;;;11.77;;
16804;SDS011;8520;50.102;20.010;2024-02-15T11:35:12;12.15;;;11.15;;
16804;SDS011;8520;50.102;20.010;2024-02-15T11:37:52;11.68;;;10.65;;
16804;SDS011;8520;50.102;20.010;2024-02-15T11:40:20;12.40;;;11.13;;
16804;SDS011;8520;50.102;20.010;2024-02-15T11:42:50;13.25;;;10.73;;
16804;SDS011;8520;50.102;20.010;2024-02-15T11:45:19;12.67;;;11.40;;
16804;SDS011;8520;50.102;20.010;2024-02-15T11:47:50;12.70;;;11.60;;
16804;SDS011;8520;50.102;20.010;2024-02-15T11:50:18;12.57;;;11.48;;
16804;SDS011;8520;50.102;20.010;2024-02-15T11:52:47;12.45;;;10.95;;
16804;SDS011;8520;50.102;20.010;2024-02-15T11:55:19;12.38;;;11.23;;
16804;SDS011;8520;50.102;20.010;2024-02-15T11:57:54;11.13;;;9.85;;
16804;SDS011;8520;50.102;20.010;2024-02-15T12:00:29;11.65;;;10.27;;
16804;SDS011;8520;50.102;20.010;2024-02-15T12:03:16;10.77;;;9.67;;
16804;SDS011;8520;50.102;20.010;2024-02-15T12:06:02;9.10;;;8.35;;
16804;SDS011;8520;50.102;20.010;2024-02-15T12:08:49;9.90;;;9.00;;
16804;SDS011;8520;50.102;20.010;2024-02-15T12:11:35;10.10;;;8.98;;
16804;SDS011;8520;50.102;20.010;2024-02-15T12:14:20;9.13;;;8.43;;
16804;SDS011;8520;50.102;20.010;2024-02-15T12:17:06;10.13;;;9.13;;
16804;SDS011;8520;50.102;20.010;2024-02-15T12:19:53;9.77;;;8.80;;
16804;SDS011;8520;50.102;20.010;2024-02-15T12:22:23;9.85;;;8.80;;
16804;SDS011;8520;50.102;20.010;2024-02-15T12:24:52;9.88;;;8.98;;
16804;SDS011;8520;50.102;20.010;2024-02-15T12:27:20;9.23;;;8.43;;
16804;SDS011;8520;50.102;20.010;2024-02-15T12:29:52;9.25;;;8.45;;
16804;SDS011;8520;50.102;20.010;2024-02-15T12:32:21;8.45;;;7.75;;
16804;SDS011;8520;50.102;20.010;2024-02-15T12:34:49;9.55;;;8.57;;
16804;SDS011;8520;50.102;20.010;2024-02-15T12:37:19;10.05;;;9.25;;
16804;SDS011;8520;50.102;20.010;2024-02-15T12:39:48;8.80;;;8.10;;
16804;SDS011;8520;50.102;20.010;2024-02-15T12:42:16;8.80;;;7.80;;
16804;SDS011;8520;50.102;20.010;2024-02-15T12:44:46;8.38;;;7.55;;
16804;SDS011;8520;50.102;20.010;2024-02-15T12:47:21;8.85;;;8.02;;
16804;SDS011;8520;50.102;20.010;2024-02-15T12:49:49;8.90;;;8.02;;
16804;SDS011;8520;50.102;20.010;2024-02-15T12:52:36;8.60;;;7.93;;
16804;SDS011;8520;50.102;20.010;2024-02-15T12:55:06;7.93;;;7.32;;
16804;SDS011;8520;50.102;20.010;2024-02-15T12:57:35;9.23;;;8.30;;
16804;SDS011;8520;50.102;20.010;2024-02-15T13:00:03;8.35;;;7.57;;
16804;SDS011;8520;50.102;20.010;2024-02-15T13:02:37;8.02;;;7.43;;
16804;SDS011;8520;50.102;20.010;2024-02-15T13:05:06;7.80;;;7.30;;
16804;SDS011;8520;50.102;20.010;2024-02-15T13:07:37;8.35;;;7.70;;
16804;SDS011;8520;50.102;20.010;2024-02-15T13:10:05;8.57;;;7.78;;
16804;SDS011;8520;50.102;20.010;2024-02-15T13:12:34;7.78;;;7.18;;
16804;SDS011;8520;50.102;20.010;2024-02-15T13:15:03;7.78;;;7.18;;
16804;SDS011;8520;50.102;20.010;2024-02-15T13:17:32;7.38;;;6.75;;
16804;SDS011;8520;50.102;20.010;2024-02-15T13:20:01;7.18;;;5.82;;
16804;SDS011;8520;50.102;20.010;2024-02-15T13:22:39;8.13;;;7.35;;
16804;SDS011;8520;50.102;20.010;2024-02-15T13:25:07;9.23;;;8.48;;
16804;SDS011;8520;50.102;20.010;2024-02-15T13:27:36;8.77;;;7.97;;
16804;SDS011;8520;50.102;20.010;2024-02-15T13:30:05;8.60;;;7.70;;
16804;SDS011;8520;50.102;20.010;2024-02-15T13:32:35;7.75;;;7.05;;
16804;SDS011;8520;50.102;20.010;2024-02-15T13:35:05;8.77;;;7.97;;
16804;SDS011;8520;50.102;20.010;2024-02-15T13:37:42;7.97;;;7.32;;
16804;SDS011;8520;50.102;20.010;2024-02-15T13:40:11;7.88;;;7.15;;
16804;SDS011;8520;50.102;20.010;2024-02-15T13:42:42;7.75;;;7.03;;
16804;SDS011;8520;50.102;20.010;2024-02-15T13:45:16;10.07;;;6.20;;
16804;SDS011;8520;50.102;20.010;2024-02-15T13:47:45;5.70;;;5.30;;
16804;SDS011;8520;50.102;20.010;2024-02-15T13:50:14;6.68;;;6.18;;
16804;SDS011;8520;50.102;20.010;2024-02-15T13:52:44;6.10;;;5.70;;
16804;SDS011;8520;50.102;20.010;2024-02-15T13:55:12;6.10;;;5.60;;
16804;SDS011;8520;50.102;20.010;2024-02-15T13:57:41;6.70;;;6.10;;
16804;SDS011;8520;50.102;20.010;2024-02-15T14:00:09;6.65;;;6.05;;
16804;SDS011;8520;50.102;20.010;2024-02-15T14:02:41;6.10;;;5.65;;
16804;SDS011;8520;50.102;20.010;2024-02-15T14:05:10;6.07;;;5.57;;
16804;SDS011;8520;50.102;20.010;2024-02-15T14:07:39;6.30;;;5.70;;
16804;SDS011;8520;50.102;20.010;2024-02-15T14:10:08;6.57;;;5.97;;
16804;SDS011;8520;50.102;20.010;2024-02-15T14:12:37;6.32;;;5.72;;
16804;SDS011;8520;50.102;20.010;2024-02-15T14:15:05;6.93;;;5.88;;
16804;SDS011;8520;50.102;20.010;2024-02-15T14:17:34;6.50;;;6.00;;
16804;SDS011;8520;50.102;20.010;2024-02-15T14:20:02;6.43;;;5.97;;
16804;SDS011;8520;50.102;20.010;2024-02-15T14:22:35;6.60;;;6.00;;
16804;SDS011;8520;50.102;20.010;2024-02-15T14:25:03;6.78;;;6.28;;
16804;SDS011;8520;50.102;20.010;2024-02-15T14:27:33;6.80;;;6.22;;
16804;SDS011;8520;50.102;20.010;2024-02-15T14:30:01;8.10;;;5.90;;
16804;SDS011;8520;50.102;20.010;2024-02-15T14:32:47;6.65;;;5.75;;
16804;SDS011;8520;50.102;20.010;2024-02-15T14:35:31;6.28;;;5.88;;
16804;SDS011;8520;50.102;20.010;2024-02-15T14:38:02;6.55;;;5.95;;
16804;SDS011;8520;50.102;20.010;2024-02-15T14:40:33;6.45;;;5.88;;
16804;SDS011;8520;50.102;20.010;2024-02-15T14:43:05;8.70;;;6.60;;
16804;SDS011;8520;50.102;20.010;2024-02-15T14:45:34;6.40;;;5.85;;
16804;SDS011;8520;50.102;20.010;2024-02-15T14:48:03;6.30;;;5.80;;